sensor_id;sensor_type;location;lat;lon;timestamp;P1;durP1;ratioP1;P2;durP2;ratioP2
13202;SDS011;6666;51.626;7.530;2023-04-01T00:01:09;3.10;;;1.30;;
13202;SDS011;6666;51.626;7.530;2023-04-01T00:03:40;5.05;;;1.30;;
13202;SDS011;6666;51.626;7.530;2023-04-01T00:06:09;3.28;;;0.90;;
13202;SDS011;6666;51.626;7.530;2023-04-01T00:08:40;1.65;;;0.90;;
13202;SDS011;6666;51.626;7.530;2023-04-01T00:11:08;4.63;;;1.20;;
13202;SDS011;6666;51.626;7.530;2023-04-01T00:13:38;3.35;;;1.10;;
13202;SDS011;6666;51.626;7.530;2023-04-01T00:16:06;4.20;;;0.90;;
13202;SDS011;6666;51.626;7.530;2023-04-01T00:18:47;2.37;;;0.90;;
13202;SDS011;6666;51.626;7.530;2023-04-01T00:21:16;4.45;;;0.88;;
13202;SDS011;6666;51.626;7.530;2023-04-01T00:23:44;1.50;;;0.80;;
13202;SDS011;6666;51.626;7.530;2023-04-01T00:26:12;1.80;;;0.70;;
13202;SDS011;6666;51.626;7.530;2023-04-01T00:28:46;1.42;;;0.80;;
13202;SDS011;6666;51.626;7.530;2023-04-01T00:31:15;2.70;;;1.10;;
13202;SDS011;6666;51.626;7.530;2023-04-01T00:33:43;2.58;;;1.10;;
13202;SDS011;6666;51.626;7.530;2023-04-01T00:36:13;2.70;;;1.10;;
13202;SDS011;6666;51.626;7.530;2023-04-01T00:38:42;1.60;;;1.00;;
13202;SDS011;6666;51.626;7.530;2023-04-01T00:41:11;2.25;;;0.90;;
13202;SDS011;6666;51.626;7.530;2023-04-01T00:43:42;1.70;;;1.20;;
13202;SDS011;6666;51.626;7.530;2023-04-01T00:46:14;2.22;;;1.20;;
13202;SDS011;6666;51.626;7.530;2023-04-01T00:48:43;3.70;;;1.17;;
13202;SDS011;6666;51.626;7.530;2023-04-01T00:51:16;4.00;;;1.25;;
13202;SDS011;6666;51.626;7.530;2023-04-01T00:53:48;4.35;;;1.42;;
13202;SDS011;6666;51.626;7.530;2023-04-01T00:56:20;6.32;;;1.25;;
13202;SDS011;6666;51.626;7.530;2023-04-01T00:58:54;4.97;;;1.33;;
13202;SDS011;6666;51.626;7.530;2023-04-01T01:01:27;2.63;;;1.70;;
13202;SDS011;6666;51.626;7.530;2023-04-01T01:03:57;2.50;;;1.45;;
13202;SDS011;6666;51.626;7.530;2023-04-01T01:06:29;2.30;;;1.30;;
13202;SDS011;6666;51.626;7.530;2023-04-01T01:09:14;2.90;;;1.02;;
13202;SDS011;6666;51.626;7.530;2023-04-01T01:11:54;2.88;;;1.40;;
13202;SDS011;6666;51.626;7.530;2023-04-01T01:14:33;3.00;;;1.70;;
13202;SDS011;6666;51.626;7.530;2023-04-01T01:17:13;2.40;;;1.50;;
13202;SDS011;6666;51.626;7.530;2023-04-01T01:20:03;1.80;;;0.80;;
13202;SDS011;6666;51.626;7.530;2023-04-01T01:22:56;1.50;;;0.80;;
13202;SDS011;6666;51.626;7.530;2023-04-01T01:25:46;2.20;;;0.80;;
13202;SDS011;6666;51.626;7.530;2023-04-01T01:28:30;1.20;;;0.70;;
13202;SDS011;6666;51.626;7.530;2023-04-01T01:31:15;1.10;;;0.90;;
13202;SDS011;6666;51.626;7.530;2023-04-01T01:33:51;1.67;;;0.70;;
13202;SDS011;6666;51.626;7.530;2023-04-01T01:36:36;1.38;;;0.68;;
13202;SDS011;6666;51.626;7.530;2023-04-01T01:39:09;1.30;;;0.82;;
13202;SDS011;6666;51.626;7.530;2023-04-01T01:41:39;1.30;;;0.70;;
13202;SDS011;6666;51.626;7.530;2023-04-01T01:44:11;2.58;;;0.90;;
13202;SDS011;6666;51.626;7.530;2023-04-01T01:46:42;1.30;;;0.70;;
13202;SDS011;6666;51.626;7.530;2023-04-01T01:49:12;1.70;;;0.90;;
13202;SDS011;6666;51.626;7.530;2023-04-01T01:51:44;1.45;;;0.75;;
13202;SDS011;6666;51.626;7.530;2023-04-01T01:54:13;1.60;;;0.82;;
13202;SDS011;6666;51.626;7.530;2023-04-01T01:56:41;2.20;;;1.20;;
13202;SDS011;6666;51.626;7.530;2023-04-01T01:59:15;1.40;;;1.20;;
13202;SDS011;6666;51.626;7.530;2023-04-01T02:01:49;3.13;;;1.27;;
13202;SDS011;6666;51.626;7.530;2023-04-01T02:04:20;1.52;;;0.93;;
13202;SDS011;6666;51.626;7.530;2023-04-01T02:06:52;1.00;;;0.90;;
13202;SDS011;6666;51.626;7.530;2023-04-01T02:09:24;0.90;;;0.70;;
13202;SDS011;6666;51.626;7.530;2023-04-01T02:11:53;0.80;;;0.70;;
13202;SDS011;6666;51.626;7.530;2023-04-01T02:14:45;1.10;;;0.75;;
13202;SDS011;6666;51.626;7.530;2023-04-01T02:17:19;2.10;;;0.80;;
13202;SDS011;6666;51.626;7.530;2023-04-01T02:19:51;1.50;;;1.00;;
13202;SDS011;6666;51.626;7.530;2023-04-01T02:22:26;4.10;;;1.20;;
13202;SDS011;6666;51.626;7.530;2023-04-01T02:24:57;2.53;;;0.80;;
13202;SDS011;6666;51.626;7.530;2023-04-01T02:27:27;1.27;;;0.82;;
13202;SDS011;6666;51.626;7.530;2023-04-01T02:29:56;2.10;;;1.00;;
13202;SDS011;6666;51.626;7.530;2023-04-01T02:32:25;1.23;;;0.90;;
13202;SDS011;6666;51.626;7.530;2023-04-01T02:34:55;4.32;;;1.20;;
13202;SDS011;6666;51.626;7.530;2023-04-01T02:37:27;1.58;;;0.80;;
13202;SDS011;6666;51.626;7.530;2023-04-01T02:39:58;1.13;;;0.80;;
13202;SDS011;6666;51.626;7.530;2023-04-01T02:42:28;1.17;;;0.70;;
13202;SDS011;6666;51.626;7.530;2023-04-01T02:44:56;1.70;;;1.00;;
13202;SDS011;6666;51.626;7.530;2023-04-01T02:47:25;2.90;;;0.90;;
13202;SDS011;6666;51.626;7.530;2023-04-01T02:49:53;2.70;;;0.90;;
13202;SDS011;6666;51.626;7.530;2023-04-01T02:52:25;0.82;;;0.77;;
13202;SDS011;6666;51.626;7.530;2023-04-01T02:54:55;1.80;;;0.85;;
13202;SDS011;6666;51.626;7.530;2023-04-01T02:57:25;1.73;;;0.90;;
13202;SDS011;6666;51.626;7.530;2023-04-01T02:59:53;1.00;;;0.60;;
13202;SDS011;6666;51.626;7.530;2023-04-01T03:02:21;1.27;;;0.70;;
13202;SDS011;6666;51.626;7.530;2023-04-01T03:04:50;2.33;;;0.80;;
13202;SDS011;6666;51.626;7.530;2023-04-01T03:07:19;0.70;;;0.60;;
13202;SDS011;6666;51.626;7.530;2023-04-01T03:09:48;1.13;;;0.90;;
13202;SDS011;6666;51.626;7.530;2023-04-01T03:12:18;2.60;;;1.00;;
13202;SDS011;6666;51.626;7.530;2023-04-01T03:14:49;3.08;;;0.80;;
13202;SDS011;6666;51.626;7.530;2023-04-01T03:17:18;2.30;;;0.93;;
13202;SDS011;6666;51.626;7.530;2023-04-01T03:19:46;1.33;;;0.98;;
13202;SDS011;6666;51.626;7.530;2023-04-01T03:22:14;2.42;;;1.33;;
13202;SDS011;6666;51.626;7.530;2023-04-01T03:24:45;2.50;;;1.52;;
13202;SDS011;6666;51.626;7.530;2023-04-01T03:27:13;4.50;;;1.70;;
13202;SDS011;6666;51.626;7.530;2023-04-01T03:29:44;2.60;;;1.40;;
13202;SDS011;6666;51.626;7.530;2023-04-01T03:32:13;5.03;;;1.60;;
13202;SDS011;6666;51.626;7.530;2023-04-01T03:34:41;1.45;;;1.20;;
13202;SDS011;6666;51.626;7.530;2023-04-01T03:37:10;1.90;;;1.30;;
13202;SDS011;6666;51.626;7.530;2023-04-01T03:39:39;3.10;;;1.55;;
13202;SDS011;6666;51.626;7.530;2023-04-01T03:42:10;2.15;;;1.25;;
13202;SDS011;6666;51.626;7.530;2023-04-01T03:44:38;2.08;;;1.50;;
13202;SDS011;6666;51.626;7.530;2023-04-01T03:47:10;2.60;;;1.40;;
13202;SDS011;6666;51.626;7.530;2023-04-01T03:49:38;2.50;;;1.70;;
13202;SDS011;6666;51.626;7.530;2023-04-01T03:52:08;2.77;;;1.80;;
13202;SDS011;6666;51.626;7.530;2023-04-01T03:54:38;2.40;;;1.98;;
13202;SDS011;6666;51.626;7.530;2023-04-01T03:57:08;2.00;;;1.40;;
13202;SDS011;6666;51.626;7.530;2023-04-01T03:59:36;1.67;;;1.52;;
13202;SDS011;6666;51.626;7.530;2023-04-01T04:02:05;2.60;;;1.00;;
13202;SDS011;6666;51.626;7.530;2023-04-01T04:04:35;2.40;;;1.10;;
13202;SDS011;6666;51.626;7.530;2023-04-01T04:07:03;2.95;;;0.80;;
13202;SDS011;6666;51.626;7.530;2023-04-01T04:09:49;1.52;;;1.20;;
13202;SDS011;6666;51.626;7.530;2023-04-01T04:12:17;2.35;;;1.40;;
13202;SDS011;6666;51.626;7.530;2023-04-01T04:14:45;4.30;;;2.00;;
13202;SDS011;6666;51.626;7.530;2023-04-01T04:17:13;2.78;;;1.80;;
13202;SDS011;6666;51.626;7.530;2023-04-01T04:19:44;2.45;;;1.80;;
13202;SDS011;6666;51.626;7.530;2023-04-01T04:22:15;3.05;;;2.05;;
13202;SDS011;6666;51.626;7.530;2023-04-01T04:24:43;5.20;;;2.00;;
13202;SDS011;6666;51.626;7.530;2023-04-01T04:27:12;2.78;;;2.10;;
13202;SDS011;6666;51.626;7.530;2023-04-01T04:29:50;2.10;;;1.90;;
13202;SDS011;6666;51.626;7.530;2023-04-01T04:32:18;2.60;;;2.30;;
13202;SDS011;6666;51.626;7.530;2023-04-01T04:34:48;5.82;;;2.30;;
13202;SDS011;6666;51.626;7.530;2023-04-01T04:37:17;2.17;;;1.60;;
13202;SDS011;6666;51.626;7.530;2023-04-01T04:39:46;2.10;;;1.20;;
13202;SDS011;6666;51.626;7.530;2023-04-01T04:42:15;1.10;;;0.97;;
13202;SDS011;6666;51.626;7.530;2023-04-01T04:44:43;1.50;;;1.02;;
13202;SDS011;6666;51.626;7.530;2023-04-01T04:47:12;1.40;;;1.00;;
13202;SDS011;6666;51.626;7.530;2023-04-01T04:49:40;2.15;;;0.95;;
13202;SDS011;6666;51.626;7.530;2023-04-01T04:52:10;0.90;;;0.80;;
13202;SDS011;6666;51.626;7.530;2023-04-01T04:54:38;2.20;;;0.90;;
13202;SDS011;6666;51.626;7.530;2023-04-01T04:57:07;1.37;;;0.90;;
13202;SDS011;6666;51.626;7.530;2023-04-01T04:59:42;1.33;;;1.02;;
13202;SDS011;6666;51.626;7.530;2023-04-01T05:02:15;1.50;;;1.00;;
13202;SDS011;6666;51.626;7.530;2023-04-01T05:04:43;3.70;;;1.30;;
13202;SDS011;6666;51.626;7.530;2023-04-01T05:07:13;2.70;;;1.10;;
13202;SDS011;6666;51.626;7.530;2023-04-01T05:09:42;2.20;;;1.20;;
13202;SDS011;6666;51.626;7.530;2023-04-01T05:12:12;7.50;;;2.00;;
13202;SDS011;6666;51.626;7.530;2023-04-01T05:15:01;4.13;;;1.40;;
13202;SDS011;6666;51.626;7.530;2023-04-01T05:17:31;1.83;;;1.23;;
13202;SDS011;6666;51.626;7.530;2023-04-01T05:20:01;2.80;;;1.50;;
13202;SDS011;6666;51.626;7.530;2023-04-01T05:22:32;2.38;;;1.50;;
13202;SDS011;6666;51.626;7.530;2023-04-01T05:25:00;2.80;;;2.10;;
13202;SDS011;6666;51.626;7.530;2023-04-01T05:27:29;3.50;;;1.77;;
13202;SDS011;6666;51.626;7.530;2023-04-01T05:29:59;4.00;;;2.00;;
13202;SDS011;6666;51.626;7.530;2023-04-01T05:32:56;3.70;;;2.00;;
13202;SDS011;6666;51.626;7.530;2023-04-01T05:35:24;2.33;;;1.60;;
13202;SDS011;6666;51.626;7.530;2023-04-01T05:37:55;2.35;;;1.40;;
13202;SDS011;6666;51.626;7.530;2023-04-01T05:40:23;4.27;;;1.80;;
13202;SDS011;6666;51.626;7.530;2023-04-01T05:42:52;1.83;;;1.70;;
13202;SDS011;6666;51.626;7.530;2023-04-01T05:45:21;3.80;;;1.90;;
13202;SDS011;6666;51.626;7.530;2023-04-01T05:47:58;3.15;;;2.00;;
13202;SDS011;6666;51.626;7.530;2023-04-01T05:50:35;4.97;;;2.20;;
13202;SDS011;6666;51.626;7.530;2023-04-01T05:53:05;3.45;;;1.92;;
13202;SDS011;6666;51.626;7.530;2023-04-01T05:55:34;4.10;;;2.00;;
13202;SDS011;6666;51.626;7.530;2023-04-01T05:58:03;2.60;;;1.95;;
13202;SDS011;6666;51.626;7.530;2023-04-01T06:00:33;2.58;;;1.77;;
13202;SDS011;6666;51.626;7.530;2023-04-01T06:03:02;1.42;;;1.27;;
13202;SDS011;6666;51.626;7.530;2023-04-01T06:05:35;1.55;;;1.42;;
13202;SDS011;6666;51.626;7.530;2023-04-01T06:08:11;1.90;;;1.50;;
13202;SDS011;6666;51.626;7.530;2023-04-01T06:10:49;2.95;;;1.40;;
13202;SDS011;6666;51.626;7.530;2023-04-01T06:13:31;1.70;;;1.30;;
13202;SDS011;6666;51.626;7.530;2023-04-01T06:16:07;2.73;;;1.70;;
13202;SDS011;6666;51.626;7.530;2023-04-01T06:18:45;1.95;;;1.75;;
13202;SDS011;6666;51.626;7.530;2023-04-01T06:21:25;1.65;;;1.35;;
13202;SDS011;6666;51.626;7.530;2023-04-01T06:24:24;1.60;;;1.40;;
13202;SDS011;6666;51.626;7.530;2023-04-01T06:27:05;2.70;;;1.50;;
13202;SDS011;6666;51.626;7.530;2023-04-01T06:29:47;2.80;;;1.60;;
13202;SDS011;6666;51.626;7.530;2023-04-01T06:32:37;1.30;;;1.20;;
13202;SDS011;6666;51.626;7.530;2023-04-01T06:35:20;2.28;;;1.42;;
13202;SDS011;6666;51.626;7.530;2023-04-01T06:38:15;1.38;;;1.27;;
13202;SDS011;6666;51.626;7.530;2023-04-01T06:41:14;1.30;;;1.20;;
13202;SDS011;6666;51.626;7.530;2023-04-01T06:43:58;6.20;;;1.63;;
13202;SDS011;6666;51.626;7.530;2023-04-01T06:46:55;3.00;;;1.60;;
13202;SDS011;6666;51.626;7.530;2023-04-01T06:49:48;2.60;;;1.70;;
13202;SDS011;6666;51.626;7.530;2023-04-01T06:52:26;2.00;;;1.60;;
13202;SDS011;6666;51.626;7.530;2023-04-01T06:55:38;2.28;;;1.55;;
13202;SDS011;6666;51.626;7.530;2023-04-01T06:58:23;3.92;;;2.00;;
13202;SDS011;6666;51.626;7.530;2023-04-01T07:00:56;2.03;;;1.40;;
13202;SDS011;6666;51.626;7.530;2023-04-01T07:03:29;2.80;;;1.40;;
13202;SDS011;6666;51.626;7.530;2023-04-01T07:06:04;2.65;;;1.67;;
13202;SDS011;6666;51.626;7.530;2023-04-01T07:08:39;3.20;;;1.80;;
13202;SDS011;6666;51.626;7.530;2023-04-01T07:11:11;2.70;;;1.50;;
13202;SDS011;6666;51.626;7.530;2023-04-01T07:14:10;4.10;;;1.40;;
13202;SDS011;6666;51.626;7.530;2023-04-01T07:16:45;2.65;;;1.80;;
13202;SDS011;6666;51.626;7.530;2023-04-01T07:19:20;2.70;;;1.67;;
13202;SDS011;6666;51.626;7.530;2023-04-01T07:22:03;2.00;;;1.80;;
13202;SDS011;6666;51.626;7.530;2023-04-01T07:24:54;2.33;;;2.00;;
13202;SDS011;6666;51.626;7.530;2023-04-01T07:27:24;1.60;;;1.30;;
13202;SDS011;6666;51.626;7.530;2023-04-01T07:29:57;3.70;;;1.10;;
13202;SDS011;6666;51.626;7.530;2023-04-01T07:32:29;4.20;;;1.88;;
13202;SDS011;6666;51.626;7.530;2023-04-01T07:35:09;2.33;;;1.13;;
13202;SDS011;6666;51.626;7.530;2023-04-01T07:37:46;1.92;;;1.20;;
13202;SDS011;6666;51.626;7.530;2023-04-01T07:40:26;1.77;;;1.17;;
13202;SDS011;6666;51.626;7.530;2023-04-01T07:43:09;2.17;;;1.00;;
13202;SDS011;6666;51.626;7.530;2023-04-01T07:46:25;2.50;;;1.00;;
13202;SDS011;6666;51.626;7.530;2023-04-01T07:49:03;2.70;;;1.10;;
13202;SDS011;6666;51.626;7.530;2023-04-01T07:51:37;1.23;;;1.13;;
13202;SDS011;6666;51.626;7.530;2023-04-01T07:54:16;2.22;;;1.10;;
13202;SDS011;6666;51.626;7.530;2023-04-01T07:56:51;1.55;;;1.30;;
13202;SDS011;6666;51.626;7.530;2023-04-01T07:59:42;3.00;;;1.50;;
13202;SDS011;6666;51.626;7.530;2023-04-01T08:02:28;2.00;;;1.30;;
13202;SDS011;6666;51.626;7.530;2023-04-01T08:05:09;3.08;;;1.40;;
13202;SDS011;6666;51.626;7.530;2023-04-01T08:07:45;2.10;;;1.10;;
13202;SDS011;6666;51.626;7.530;2023-04-01T08:10:43;1.45;;;1.20;;
13202;SDS011;6666;51.626;7.530;2023-04-01T08:13:38;1.95;;;1.63;;
13202;SDS011;6666;51.626;7.530;2023-04-01T08:16:31;1.65;;;1.42;;
13202;SDS011;6666;51.626;7.530;2023-04-01T08:19:18;3.20;;;1.40;;
13202;SDS011;6666;51.626;7.530;2023-04-01T08:21:57;2.40;;;1.20;;
13202;SDS011;6666;51.626;7.530;2023-04-01T08:24:33;1.00;;;0.90;;
13202;SDS011;6666;51.626;7.530;2023-04-01T08:27:20;2.10;;;1.20;;
13202;SDS011;6666;51.626;7.530;2023-04-01T08:29:55;2.40;;;1.50;;
13202;SDS011;6666;51.626;7.530;2023-04-01T08:32:30;1.98;;;1.40;;
13202;SDS011;6666;51.626;7.530;2023-04-01T08:35:09;1.42;;;1.33;;
13202;SDS011;6666;51.626;7.530;2023-04-01T08:37:47;2.80;;;1.10;;
13202;SDS011;6666;51.626;7.530;2023-04-01T08:43:42;1.80;;;1.30;;
13202;SDS011;6666;51.626;7.530;2023-04-01T08:46:47;2.88;;;1.50;;
13202;SDS011;6666;51.626;7.530;2023-04-01T08:49:48;1.90;;;1.30;;
13202;SDS011;6666;51.626;7.530;2023-04-01T08:52:50;2.38;;;1.30;;
13202;SDS011;6666;51.626;7.530;2023-04-01T08:55:40;2.22;;;1.45;;
13202;SDS011;6666;51.626;7.530;2023-04-01T08:58:22;1.70;;;1.20;;
13202;SDS011;6666;51.626;7.530;2023-04-01T09:01:16;3.50;;;1.10;;
13202;SDS011;6666;51.626;7.530;2023-04-01T09:03:59;1.70;;;1.20;;
13202;SDS011;6666;51.626;7.530;2023-04-01T09:06:46;1.60;;;1.27;;
13202;SDS011;6666;51.626;7.530;2023-04-01T09:12:33;2.50;;;1.80;;
13202;SDS011;6666;51.626;7.530;2023-04-01T09:15:18;1.30;;;1.20;;
13202;SDS011;6666;51.626;7.530;2023-04-01T09:21:20;1.70;;;1.50;;
13202;SDS011;6666;51.626;7.530;2023-04-01T09:26:59;1.30;;;1.13;;
13202;SDS011;6666;51.626;7.530;2023-04-01T09:29:42;2.00;;;1.40;;
13202;SDS011;6666;51.626;7.530;2023-04-01T09:32:25;2.00;;;1.38;;
13202;SDS011;6666;51.626;7.530;2023-04-01T09:35:20;1.85;;;1.50;;
13202;SDS011;6666;51.626;7.530;2023-04-01T09:37:57;2.70;;;1.50;;
13202;SDS011;6666;51.626;7.530;2023-04-01T09:40:40;2.40;;;1.23;;
13202;SDS011;6666;51.626;7.530;2023-04-01T09:43:25;1.60;;;1.50;;
13202;SDS011;6666;51.626;7.530;2023-04-01T09:49:04;1.90;;;1.50;;
13202;SDS011;6666;51.626;7.530;2023-04-01T09:51:59;1.77;;;1.55;;
13202;SDS011;6666;51.626;7.530;2023-04-01T09:54:49;3.10;;;1.67;;
13202;SDS011;6666;51.626;7.530;2023-04-01T09:57:48;1.92;;;1.73;;
13202;SDS011;6666;51.626;7.530;2023-04-01T10:07:32;2.63;;;1.80;;
13202;SDS011;6666;51.626;7.530;2023-04-01T10:10:31;2.00;;;1.80;;
13202;SDS011;6666;51.626;7.530;2023-04-01T10:16:51;3.10;;;2.10;;
13202;SDS011;6666;51.626;7.530;2023-04-01T10:19:49;2.15;;;1.90;;
13202;SDS011;6666;51.626;7.530;2023-04-01T10:22:36;2.73;;;2.43;;
13202;SDS011;6666;51.626;7.530;2023-04-01T10:28:33;3.07;;;2.47;;
13202;SDS011;6666;51.626;7.530;2023-04-01T10:32:02;3.03;;;2.40;;
13202;SDS011;6666;51.626;7.530;2023-04-01T10:35:06;2.60;;;2.40;;
13202;SDS011;6666;51.626;7.530;2023-04-01T10:41:15;2.60;;;2.30;;
13202;SDS011;6666;51.626;7.530;2023-04-01T10:47:43;3.00;;;2.70;;
13202;SDS011;6666;51.626;7.530;2023-04-01T10:50:42;3.60;;;2.95;;
13202;SDS011;6666;51.626;7.530;2023-04-01T10:53:34;4.50;;;2.70;;
13202;SDS011;6666;51.626;7.530;2023-04-01T10:56:34;3.15;;;2.85;;
13202;SDS011;6666;51.626;7.530;2023-04-01T11:03:02;3.33;;;2.70;;
13202;SDS011;6666;51.626;7.530;2023-04-01T11:06:45;2.90;;;2.50;;
13202;SDS011;6666;51.626;7.530;2023-04-01T11:13:00;3.20;;;2.20;;
13202;SDS011;6666;51.626;7.530;2023-04-01T11:15:53;4.70;;;2.00;;
13202;SDS011;6666;51.626;7.530;2023-04-01T11:19:17;2.90;;;2.30;;
13202;SDS011;6666;51.626;7.530;2023-04-01T11:28:45;2.17;;;1.98;;
13202;SDS011;6666;51.626;7.530;2023-04-01T11:31:35;2.88;;;1.90;;
13202;SDS011;6666;51.626;7.530;2023-04-01T11:34:23;2.90;;;2.00;;
13202;SDS011;6666;51.626;7.530;2023-04-01T11:37:05;3.53;;;2.67;;
13202;SDS011;6666;51.626;7.530;2023-04-01T11:40:09;2.53;;;2.30;;
13202;SDS011;6666;51.626;7.530;2023-04-01T11:43:15;2.50;;;2.10;;
13202;SDS011;6666;51.626;7.530;2023-04-01T11:46:19;2.60;;;2.10;;
13202;SDS011;6666;51.626;7.530;2023-04-01T11:48:55;2.20;;;1.90;;
13202;SDS011;6666;51.626;7.530;2023-04-01T11:51:47;2.33;;;2.10;;
13202;SDS011;6666;51.626;7.530;2023-04-01T11:54:31;1.85;;;1.73;;
13202;SDS011;6666;51.626;7.530;2023-04-01T11:57:17;2.35;;;2.15;;
13202;SDS011;6666;51.626;7.530;2023-04-01T12:03:22;2.17;;;1.80;;
13202;SDS011;6666;51.626;7.530;2023-04-01T12:06:08;2.13;;;1.75;;
13202;SDS011;6666;51.626;7.530;2023-04-01T12:08:44;1.85;;;1.60;;
13202;SDS011;6666;51.626;7.530;2023-04-01T12:11:21;2.03;;;1.93;;
13202;SDS011;6666;51.626;7.530;2023-04-01T12:13:59;1.60;;;1.50;;
13202;SDS011;6666;51.626;7.530;2023-04-01T12:16:43;2.97;;;1.60;;
13202;SDS011;6666;51.626;7.530;2023-04-01T12:19:21;1.80;;;1.70;;
13202;SDS011;6666;51.626;7.530;2023-04-01T12:21:58;2.95;;;2.30;;
13202;SDS011;6666;51.626;7.530;2023-04-01T12:24:46;4.50;;;1.90;;
13202;SDS011;6666;51.626;7.530;2023-04-01T12:27:19;3.07;;;2.13;;
13202;SDS011;6666;51.626;7.530;2023-04-01T12:36:07;3.60;;;2.85;;
13202;SDS011;6666;51.626;7.530;2023-04-01T12:38:55;5.13;;;3.38;;
13202;SDS011;6666;51.626;7.530;2023-04-01T12:41:41;4.40;;;3.20;;
13202;SDS011;6666;51.626;7.530;2023-04-01T12:44:20;3.45;;;3.10;;
13202;SDS011;6666;51.626;7.530;2023-04-01T12:47:09;5.28;;;3.55;;
13202;SDS011;6666;51.626;7.530;2023-04-01T12:49:55;5.80;;;4.05;;
13202;SDS011;6666;51.626;7.530;2023-04-01T12:52:39;3.88;;;3.22;;
13202;SDS011;6666;51.626;7.530;2023-04-01T12:55:35;5.85;;;4.70;;
13202;SDS011;6666;51.626;7.530;2023-04-01T12:58:13;8.30;;;5.53;;
13202;SDS011;6666;51.626;7.530;2023-04-01T13:01:08;14.02;;;8.93;;
13202;SDS011;6666;51.626;7.530;2023-04-01T13:04:04;7.20;;;4.82;;
13202;SDS011;6666;51.626;7.530;2023-04-01T13:07:10;6.32;;;4.18;;
13202;SDS011;6666;51.626;7.530;2023-04-01T13:09:52;3.80;;;3.22;;
13202;SDS011;6666;51.626;7.530;2023-04-01T13:12:36;5.70;;;3.90;;
13202;SDS011;6666;51.626;7.530;2023-04-01T13:15:29;3.87;;;2.97;;
13202;SDS011;6666;51.626;7.530;2023-04-01T13:18:07;6.63;;;4.00;;
13202;SDS011;6666;51.626;7.530;2023-04-01T13:20:47;23.20;;;12.15;;
13202;SDS011;6666;51.626;7.530;2023-04-01T13:23:28;21.10;;;9.90;;
13202;SDS011;6666;51.626;7.530;2023-04-01T13:26:06;34.50;;;15.30;;
13202;SDS011;6666;51.626;7.530;2023-04-01T13:28:47;15.90;;;7.85;;
13202;SDS011;6666;51.626;7.530;2023-04-01T13:31:28;22.95;;;10.85;;
13202;SDS011;6666;51.626;7.530;2023-04-01T13:34:12;38.33;;;15.90;;
13202;SDS011;6666;51.626;7.530;2023-04-01T13:36:51;25.73;;;11.30;;
13202;SDS011;6666;51.626;7.530;2023-04-01T13:39:41;27.63;;;13.50;;
13202;SDS011;6666;51.626;7.530;2023-04-01T13:42:25;10.68;;;6.32;;
13202;SDS011;6666;51.626;7.530;2023-04-01T13:44:56;6.65;;;4.60;;
13202;SDS011;6666;51.626;7.530;2023-04-01T13:47:40;4.53;;;3.80;;
13202;SDS011;6666;51.626;7.530;2023-04-01T13:50:34;8.00;;;6.38;;
13202;SDS011;6666;51.626;7.530;2023-04-01T13:56:14;4.28;;;3.08;;
13202;SDS011;6666;51.626;7.530;2023-04-01T13:58:53;3.60;;;2.90;;
13202;SDS011;6666;51.626;7.530;2023-04-01T14:01:36;4.50;;;2.53;;
13202;SDS011;6666;51.626;7.530;2023-04-01T14:07:14;5.80;;;3.60;;
13202;SDS011;6666;51.626;7.530;2023-04-01T14:10:05;5.18;;;3.90;;
13202;SDS011;6666;51.626;7.530;2023-04-01T14:12:50;4.53;;;3.25;;
13202;SDS011;6666;51.626;7.530;2023-04-01T14:15:31;4.03;;;3.00;;
13202;SDS011;6666;51.626;7.530;2023-04-01T14:18:18;4.80;;;3.80;;
13202;SDS011;6666;51.626;7.530;2023-04-01T14:21:02;5.83;;;4.40;;
13202;SDS011;6666;51.626;7.530;2023-04-01T14:23:47;4.40;;;3.70;;
13202;SDS011;6666;51.626;7.530;2023-04-01T14:26:30;5.97;;;3.65;;
13202;SDS011;6666;51.626;7.530;2023-04-01T14:29:24;4.93;;;3.37;;
13202;SDS011;6666;51.626;7.530;2023-04-01T14:32:06;7.85;;;3.20;;
13202;SDS011;6666;51.626;7.530;2023-04-01T14:34:44;6.00;;;5.20;;
13202;SDS011;6666;51.626;7.530;2023-04-01T14:37:37;4.60;;;3.60;;
13202;SDS011;6666;51.626;7.530;2023-04-01T14:40:26;4.45;;;3.40;;
13202;SDS011;6666;51.626;7.530;2023-04-01T14:43:01;3.77;;;3.00;;
13202;SDS011;6666;51.626;7.530;2023-04-01T14:45:46;3.20;;;2.75;;
13202;SDS011;6666;51.626;7.530;2023-04-01T14:48:33;4.60;;;3.13;;
13202;SDS011;6666;51.626;7.530;2023-04-01T14:51:09;4.28;;;2.92;;
13202;SDS011;6666;51.626;7.530;2023-04-01T14:53:52;4.07;;;2.90;;
13202;SDS011;6666;51.626;7.530;2023-04-01T14:56:40;4.00;;;2.80;;
13202;SDS011;6666;51.626;7.530;2023-04-01T14:59:10;5.70;;;3.33;;
13202;SDS011;6666;51.626;7.530;2023-04-01T15:01:47;4.93;;;3.30;;
13202;SDS011;6666;51.626;7.530;2023-04-01T15:04:35;4.22;;;3.17;;
13202;SDS011;6666;51.626;7.530;2023-04-01T15:07:21;3.95;;;3.10;;
13202;SDS011;6666;51.626;7.530;2023-04-01T15:10:24;3.80;;;2.90;;
13202;SDS011;6666;51.626;7.530;2023-04-01T15:13:05;5.00;;;3.63;;
13202;SDS011;6666;51.626;7.530;2023-04-01T15:15:47;4.20;;;3.10;;
13202;SDS011;6666;51.626;7.530;2023-04-01T15:18:29;5.32;;;3.30;;
13202;SDS011;6666;51.626;7.530;2023-04-01T15:21:13;5.80;;;3.60;;
13202;SDS011;6666;51.626;7.530;2023-04-01T15:23:54;4.57;;;3.38;;
13202;SDS011;6666;51.626;7.530;2023-04-01T15:26:39;3.90;;;3.30;;
13202;SDS011;6666;51.626;7.530;2023-04-01T15:29:23;5.13;;;3.90;;
13202;SDS011;6666;51.626;7.530;2023-04-01T15:32:05;5.27;;;4.13;;
13202;SDS011;6666;51.626;7.530;2023-04-01T15:34:44;5.37;;;3.60;;
13202;SDS011;6666;51.626;7.530;2023-04-01T15:37:23;5.20;;;3.90;;
13202;SDS011;6666;51.626;7.530;2023-04-01T15:40:03;6.03;;;4.55;;
13202;SDS011;6666;51.626;7.530;2023-04-01T15:42:48;7.57;;;4.40;;
13202;SDS011;6666;51.626;7.530;2023-04-01T15:45:28;7.43;;;4.70;;
13202;SDS011;6666;51.626;7.530;2023-04-01T15:48:06;5.85;;;4.32;;
13202;SDS011;6666;51.626;7.530;2023-04-01T15:50:58;7.15;;;4.60;;
13202;SDS011;6666;51.626;7.530;2023-04-01T15:53:41;6.50;;;4.70;;
13202;SDS011;6666;51.626;7.530;2023-04-01T15:56:25;6.72;;;4.80;;
13202;SDS011;6666;51.626;7.530;2023-04-01T15:59:04;10.90;;;6.67;;
13202;SDS011;6666;51.626;7.530;2023-04-01T16:01:47;40.58;;;21.92;;
13202;SDS011;6666;51.626;7.530;2023-04-01T16:04:40;6.60;;;5.25;;
13202;SDS011;6666;51.626;7.530;2023-04-01T16:07:21;8.40;;;5.43;;
13202;SDS011;6666;51.626;7.530;2023-04-01T16:10:09;8.43;;;5.82;;
13202;SDS011;6666;51.626;7.530;2023-04-01T16:12:53;8.70;;;5.82;;
13202;SDS011;6666;51.626;7.530;2023-04-01T16:15:34;7.30;;;5.30;;
13202;SDS011;6666;51.626;7.530;2023-04-01T16:18:15;8.43;;;5.35;;
13202;SDS011;6666;51.626;7.530;2023-04-01T16:20:55;7.70;;;5.70;;
13202;SDS011;6666;51.626;7.530;2023-04-01T16:23:30;9.25;;;5.70;;
13202;SDS011;6666;51.626;7.530;2023-04-01T16:26:06;7.18;;;5.38;;
13202;SDS011;6666;51.626;7.530;2023-04-01T16:28:38;12.07;;;5.68;;
13202;SDS011;6666;51.626;7.530;2023-04-01T16:31:26;9.10;;;5.88;;
13202;SDS011;6666;51.626;7.530;2023-04-01T16:34:03;8.65;;;5.50;;
13202;SDS011;6666;51.626;7.530;2023-04-01T16:36:37;8.27;;;5.82;;
13202;SDS011;6666;51.626;7.530;2023-04-01T16:39:25;12.73;;;7.20;;
13202;SDS011;6666;51.626;7.530;2023-04-01T16:42:09;11.60;;;6.97;;
13202;SDS011;6666;51.626;7.530;2023-04-01T16:44:55;7.82;;;6.25;;
13202;SDS011;6666;51.626;7.530;2023-04-01T16:47:31;10.43;;;6.10;;
13202;SDS011;6666;51.626;7.530;2023-04-01T16:50:06;6.78;;;5.20;;
13202;SDS011;6666;51.626;7.530;2023-04-01T16:52:46;8.20;;;5.27;;
13202;SDS011;6666;51.626;7.530;2023-04-01T16:55:34;6.57;;;4.80;;
13202;SDS011;6666;51.626;7.530;2023-04-01T16:58:09;5.40;;;4.10;;
13202;SDS011;6666;51.626;7.530;2023-04-01T17:00:47;6.63;;;4.68;;
13202;SDS011;6666;51.626;7.530;2023-04-01T17:03:22;8.07;;;4.78;;
13202;SDS011;6666;51.626;7.530;2023-04-01T17:05:58;9.55;;;5.90;;
13202;SDS011;6666;51.626;7.530;2023-04-01T17:08:38;15.15;;;8.20;;
13202;SDS011;6666;51.626;7.530;2023-04-01T17:11:18;18.20;;;9.10;;
13202;SDS011;6666;51.626;7.530;2023-04-01T17:13:50;16.27;;;8.43;;
13202;SDS011;6666;51.626;7.530;2023-04-01T17:16:41;12.68;;;7.65;;
13202;SDS011;6666;51.626;7.530;2023-04-01T17:19:23;16.13;;;7.50;;
13202;SDS011;6666;51.626;7.530;2023-04-01T17:22:04;20.77;;;9.80;;